createdAt,value
2023-02-11T00:00:00.884Z,275.10
2023-02-11T00:00:33.210Z,280.83
2023-02-11T00:01:19.244Z,287.27
2023-02-11T00:01:51.621Z,295.03
2023-02-11T00:02:24.235Z,296.33
2023-02-11T00:02:56.762Z,297.20
2023-02-11T00:03:29.182Z,300.40
2023-02-11T00:04:03.399Z,297.70
2023-02-11T00:04:35.723Z,296.87
2023-02-11T00:05:08.143Z,296.83
2023-02-11T00:05:40.451Z,298.37
2023-02-11T00:06:12.856Z,303.10
2023-02-11T00:06:45.172Z,299.60
2023-02-11T00:07:17.509Z,299.43
2023-02-11T00:07:49.832Z,293.43
2023-02-11T00:08:22.157Z,288.90
2023-02-11T00:08:55.332Z,283.50
2023-02-11T00:09:28.528Z,285.27
2023-02-11T00:10:06.408Z,282.77
2023-02-11T00:10:38.688Z,286.30
2023-02-11T00:11:16.253Z,287.40
2023-02-11T00:11:48.564Z,281.87
2023-02-11T00:12:21.875Z,285.13
2023-02-11T00:12:54.160Z,287.77
2023-02-11T00:13:27.025Z,294.73
2023-02-11T00:14:02.316Z,295.87
2023-02-11T00:14:34.673Z,300.97
2023-02-11T00:15:08.499Z,301.47
2023-02-11T00:15:40.813Z,299.03
2023-02-11T00:16:16.099Z,300.80
2023-02-11T00:16:48.495Z,298.30
2023-02-11T00:17:21.281Z,298.70
2023-02-11T00:17:53.562Z,300.33
2023-02-11T00:18:25.933Z,300.17
2023-02-11T00:19:02.411Z,301.50
2023-02-11T00:19:34.746Z,301.83
2023-02-11T00:20:08.301Z,299.47
2023-02-11T00:20:41.516Z,305.73
2023-02-11T00:21:17.882Z,302.30
2023-02-11T00:21:50.206Z,300.33
2023-02-11T00:22:22.561Z,302.63
2023-02-11T00:22:54.838Z,302.73
2023-02-11T00:23:27.187Z,307.07
2023-02-11T00:24:02.294Z,304.83
2023-02-11T00:24:36.354Z,305.30
2023-02-11T00:25:08.655Z,304.90
2023-02-11T00:25:41.887Z,301.83
2023-02-11T00:26:16.834Z,302.37
2023-02-11T00:26:49.199Z,302.37
2023-02-11T00:27:21.519Z,302.50
2023-02-11T00:27:53.799Z,298.87
2023-02-11T00:28:26.123Z,296.07
2023-02-11T00:28:59.124Z,286.93
2023-02-11T00:29:31.472Z,287.87
2023-02-11T00:30:05.397Z,289.87
2023-02-11T00:30:37.844Z,292.13
2023-02-11T00:31:10.786Z,289.60
2023-02-11T00:31:43.322Z,287.47
2023-02-11T00:32:15.766Z,285.20
2023-02-11T00:32:48.103Z,290.33
2023-02-11T00:33:20.401Z,290.90
2023-02-11T00:33:52.841Z,289.70
2023-02-11T00:34:25.154Z,289.57
2023-02-11T00:34:57.504Z,288.97
2023-02-11T00:35:30.206Z,286.70
2023-02-11T00:36:13.273Z,289.73
2023-02-11T00:36:45.580Z,291.43
2023-02-11T00:37:17.896Z,288.67
2023-02-11T00:37:50.242Z,289.40
2023-02-11T00:38:22.555Z,288.27
2023-02-11T00:38:56.446Z,278.40
2023-02-11T00:39:28.908Z,272.50
2023-02-11T00:40:01.249Z,266.23
2023-02-11T00:40:33.545Z,261.33
2023-02-11T00:41:06.038Z,252.30
2023-02-11T00:41:38.334Z,241.83
2023-02-11T00:42:14.736Z,222.43
2023-02-11T00:42:47.091Z,203.67
2023-02-11T00:43:19.413Z,198.30
2023-02-11T00:43:52.508Z,194.97
2023-02-11T00:44:24.978Z,189.70
2023-02-11T00:44:57.281Z,185.90
2023-02-11T00:45:30.725Z,177.93
2023-02-11T00:46:03.147Z,170.97
2023-02-11T00:46:35.583Z,169.57
2023-02-11T00:47:08.008Z,170.30
2023-02-11T00:47:40.346Z,167.13
2023-02-11T00:48:12.676Z,176.17
2023-02-11T00:48:45.147Z,175.13
2023-02-11T00:49:17.517Z,175.23
2023-02-11T00:49:49.861Z,188.23
2023-02-11T00:50:22.954Z,194.57
2023-02-11T00:50:55.247Z,200.37
2023-02-11T00:51:28.884Z,207.00
2023-02-11T00:52:01.226Z,209.20
2023-02-11T00:52:33.663Z,223.13
2023-02-11T00:53:06.039Z,227.07
2023-02-11T00:53:38.893Z,228.63
2023-02-11T00:54:11.277Z,231.30
2023-02-11T00:54:43.733Z,233.90
2023-02-11T00:55:17.109Z,235.50
2023-02-11T00:55:49.679Z,237.73
2023-02-11T00:56:22.094Z,237.70
2023-02-11T00:56:54.428Z,234.43
2023-02-11T00:57:26.802Z,226.83
2023-02-11T00:58:00.118Z,224.43
2023-02-11T00:58:32.446Z,227.07
2023-02-11T00:59:04.799Z,211.47
2023-02-11T00:59:37.158Z,202.13
2023-02-11T01:00:11.705Z,200.77
2023-02-11T01:00:44.486Z,228.27
2023-02-11T01:01:16.878Z,246.37
2023-02-11T01:01:49.321Z,252.07
2023-02-11T01:02:21.734Z,258.80
2023-02-11T01:02:54.810Z,262.90
2023-02-11T01:03:27.163Z,259.90
2023-02-11T01:03:59.717Z,260.50
2023-02-11T01:04:32.040Z,262.17
2023-02-11T01:05:05.143Z,260.23
2023-02-11T01:05:37.593Z,263.00
2023-02-11T01:06:10.553Z,263.07
2023-02-11T01:06:42.852Z,263.23
2023-02-11T01:07:15.237Z,261.23
2023-02-11T01:07:47.747Z,264.27
2023-02-11T01:08:20.374Z,260.47
2023-02-11T01:08:52.739Z,255.50
2023-02-11T01:09:25.056Z,259.13
2023-02-11T01:09:57.434Z,258.33
2023-02-11T01:10:29.738Z,257.30
2023-02-11T01:11:08.289Z,255.83
2023-02-11T01:11:40.602Z,254.57
2023-02-11T01:12:12.927Z,257.50
2023-02-11T01:12:45.350Z,250.20
2023-02-11T01:13:17.652Z,248.43
2023-02-11T01:13:50.814Z,245.97
2023-02-11T01:14:23.229Z,249.17
2023-02-11T01:14:55.516Z,255.60
2023-02-11T01:15:28.103Z,250.23
2023-02-11T01:16:00.554Z,244.03
2023-02-11T01:16:32.928Z,241.43
2023-02-11T01:17:06.502Z,244.30
2023-02-11T01:17:38.850Z,242.13
2023-02-11T01:18:11.338Z,239.13
2023-02-11T01:18:44.424Z,234.80
2023-02-11T01:19:16.856Z,236.53
2023-02-11T01:19:49.180Z,236.03
2023-02-11T01:20:25.571Z,230.57
2023-02-11T01:20:57.872Z,230.20
2023-02-11T01:21:30.202Z,229.77
2023-02-11T01:22:02.576Z,227.93
2023-02-11T01:22:37.405Z,226.87
2023-02-11T01:23:09.701Z,228.23
2023-02-11T01:23:42.300Z,238.87
2023-02-11T01:24:14.651Z,251.40
2023-02-11T01:24:47.296Z,244.30
2023-02-11T01:25:19.881Z,239.40
2023-02-11T01:25:52.832Z,234.83
2023-02-11T01:26:25.325Z,229.83
2023-02-11T01:26:57.667Z,227.77
2023-02-11T01:27:30.032Z,231.63
2023-02-11T01:28:02.403Z,230.50
2023-02-11T01:28:34.867Z,228.03
2023-02-11T01:29:07.226Z,234.17
2023-02-11T01:29:39.513Z,236.53
2023-02-11T01:30:13.916Z,231.80
2023-02-11T01:30:46.290Z,235.70
2023-02-11T01:31:18.713Z,231.20
2023-02-11T01:31:51.185Z,235.37
2023-02-11T01:32:23.590Z,235.33
2023-02-11T01:32:55.873Z,230.77
2023-02-11T01:33:28.284Z,225.30
2023-02-11T01:34:01.248Z,228.37
2023-02-11T01:34:33.553Z,232.17
2023-02-11T01:35:06.850Z,231.57
2023-02-11T01:35:40.369Z,229.83
2023-02-11T01:36:13.190Z,230.37
2023-02-11T01:36:45.545Z,232.03
2023-02-11T01:37:17.845Z,230.00
2023-02-11T01:37:50.171Z,228.17
2023-02-11T01:38:25.916Z,231.93
2023-02-11T01:38:58.264Z,226.13
2023-02-11T01:39:34.038Z,226.70
2023-02-11T01:40:11.729Z,226.37
2023-02-11T01:41:05.916Z,222.90
2023-02-11T01:41:38.383Z,228.53
2023-02-11T01:42:17.053Z,228.30
2023-02-11T01:42:51.044Z,224.97
2023-02-11T01:43:24.721Z,225.10
2023-02-11T01:43:57.008Z,223.03
2023-02-11T01:44:33.614Z,220.17
2023-02-11T01:45:39.834Z,217.77
2023-02-11T01:46:24.890Z,218.70
2023-02-11T01:46:57.854Z,218.03
2023-02-11T01:47:30.178Z,222.37
2023-02-11T01:48:02.582Z,225.90
2023-02-11T01:48:40.322Z,222.37
2023-02-11T01:49:18.253Z,218.47
2023-02-11T01:50:00.933Z,218.00
2023-02-11T01:50:33.923Z,213.40
2023-02-11T01:51:24.012Z,218.27
2023-02-11T01:52:19.157Z,241.57
2023-02-11T01:52:51.585Z,239.90
2023-02-11T01:53:43.559Z,216.27
2023-02-11T01:54:42.124Z,201.43
2023-02-11T01:55:33.065Z,190.97
2023-02-11T01:56:25.087Z,213.60
2023-02-11T01:57:19.005Z,247.80
2023-02-11T01:57:58.740Z,236.13
2023-02-11T01:58:36.718Z,223.43
2023-02-11T01:59:18.501Z,218.20
2023-02-11T01:59:57.366Z,215.33
2023-02-11T02:00:36.256Z,211.53
2023-02-11T02:01:10.636Z,212.70
2023-02-11T02:01:49.266Z,220.37
2023-02-11T02:02:27.289Z,221.03
2023-02-11T02:03:02.273Z,224.77
2023-02-11T02:03:40.719Z,221.30
2023-02-11T02:04:19.058Z,216.73
2023-02-11T02:05:03.076Z,213.87
2023-02-11T02:05:48.492Z,214.00
2023-02-11T02:06:30.023Z,220.00
2023-02-11T02:07:09.510Z,212.33
2023-02-11T02:08:32.163Z,207.33
2023-02-11T02:09:13.131Z,203.20
2023-02-11T02:09:58.835Z,205.27
2023-02-11T02:10:34.026Z,198.77
2023-02-11T02:11:07.068Z,201.13
2023-02-11T02:11:39.363Z,197.40
2023-02-11T02:12:11.793Z,197.27
2023-02-11T02:12:44.154Z,201.83
2023-02-11T02:13:17.415Z,199.93
2023-02-11T02:13:49.830Z,201.00
2023-02-11T02:14:22.285Z,198.10
2023-02-11T02:15:18.363Z,196.53
2023-02-11T02:15:53.361Z,196.10
2023-02-11T02:16:33.228Z,194.13
2023-02-11T02:17:05.601Z,200.50
2023-02-11T02:18:07.953Z,197.17
2023-02-11T02:18:46.405Z,197.77
2023-02-11T02:20:06.343Z,194.97
2023-02-11T02:20:56.525Z,201.23
2023-02-11T02:21:56.627Z,202.20
2023-02-11T02:22:53.885Z,197.57
2023-02-11T02:23:44.379Z,196.27
2023-02-11T02:24:38.795Z,194.40
2023-02-11T02:25:34.808Z,191.70
2023-02-11T02:26:12.824Z,189.97
2023-02-11T02:27:04.410Z,189.73
2023-02-11T02:28:14.091Z,190.50
2023-02-11T02:29:16.625Z,188.07
2023-02-11T02:29:58.125Z,187.97
2023-02-11T02:30:55.370Z,189.03
2023-02-11T02:31:58.509Z,191.20
2023-02-11T02:32:57.215Z,187.33
2023-02-11T02:34:06.835Z,180.27
2023-02-11T02:35:05.092Z,180.00
2023-02-11T02:36:04.087Z,180.83
2023-02-11T02:36:54.863Z,181.93
2023-02-11T02:37:51.556Z,182.10
2023-02-11T02:38:52.952Z,179.63
2023-02-11T02:39:31.655Z,184.90
2023-02-11T02:40:12.868Z,183.90
2023-02-11T02:40:50.898Z,188.60
2023-02-11T02:41:29.083Z,187.63
2023-02-11T02:42:02.312Z,187.33
2023-02-11T02:42:36.508Z,187.37
2023-02-11T02:43:10.579Z,183.20
2023-02-11T02:43:47.937Z,182.50
2023-02-11T02:44:20.688Z,182.63
2023-02-11T02:44:55.511Z,182.13
2023-02-11T02:45:27.946Z,185.20
2023-02-11T02:46:20.211Z,184.73
2023-02-11T02:46:52.638Z,181.77
2023-02-11T02:47:24.943Z,179.53
2023-02-11T02:47:57.221Z,182.17
2023-02-11T02:48:32.299Z,184.83
2023-02-11T02:49:11.047Z,186.30
2023-02-11T02:49:43.393Z,181.83
2023-02-11T02:50:23.082Z,185.80
2023-02-11T02:51:05.669Z,189.10
2023-02-11T02:51:59.228Z,184.13
2023-02-11T02:52:57.214Z,182.13
2023-02-11T02:53:50.963Z,185.33
2023-02-11T02:54:29.411Z,181.93
2023-02-11T02:55:29.873Z,183.20
2023-02-11T02:56:22.778Z,183.03
2023-02-11T02:57:10.835Z,177.73
2023-02-11T02:58:00.208Z,177.43
2023-02-11T02:58:47.286Z,178.83
2023-02-11T02:59:31.684Z,178.67
2023-02-11T03:00:12.638Z,177.43
2023-02-11T03:01:03.192Z,179.27
2023-02-11T03:01:54.485Z,181.00
2023-02-11T03:02:33.667Z,182.03
2023-02-11T03:03:24.057Z,172.67
2023-02-11T03:04:14.884Z,154.53
2023-02-11T03:04:55.119Z,162.27
2023-02-11T03:05:33.431Z,165.90
2023-02-11T03:06:23.724Z,179.33
2023-02-11T03:07:05.886Z,177.10
2023-02-11T03:07:46.370Z,177.57
2023-02-11T03:08:30.623Z,175.87
2023-02-11T03:09:11.958Z,171.23
2023-02-11T03:09:54.822Z,173.50
2023-02-11T03:10:42.590Z,174.63
2023-02-11T03:11:18.574Z,171.73
2023-02-11T03:11:51.041Z,176.50
2023-02-11T03:12:26.586Z,173.43
2023-02-11T03:13:01.152Z,169.37
2023-02-11T03:13:37.626Z,167.83
2023-02-11T03:14:13.157Z,165.73
2023-02-11T03:14:46.878Z,163.50
2023-02-11T03:15:22.957Z,165.50
2023-02-11T03:15:59.260Z,163.57
2023-02-11T03:16:39.113Z,165.50
2023-02-11T03:17:11.651Z,164.03
2023-02-11T03:17:49.571Z,164.77
2023-02-11T03:18:27.438Z,165.30
2023-02-11T03:19:05.738Z,163.83
2023-02-11T03:19:44.301Z,164.07
2023-02-11T03:20:20.138Z,161.17
2023-02-11T03:20:54.961Z,162.40
2023-02-11T03:21:31.139Z,161.90
2023-02-11T03:22:08.683Z,164.63
2023-02-11T03:23:02.180Z,164.83
2023-02-11T03:23:47.418Z,165.67
2023-02-11T03:24:28.256Z,162.27
2023-02-11T03:25:02.434Z,160.57
2023-02-11T03:25:41.287Z,163.03
2023-02-11T03:26:16.188Z,163.07
2023-02-11T03:26:58.886Z,161.83
2023-02-11T03:27:46.987Z,169.90
2023-02-11T03:28:31.647Z,163.43
2023-02-11T03:29:35.373Z,161.67
2023-02-11T03:30:07.940Z,159.63
2023-02-11T03:30:53.463Z,154.03
2023-02-11T03:31:45.053Z,152.93
2023-02-11T03:32:32.931Z,150.23
2023-02-11T03:33:17.397Z,150.17
2023-02-11T03:34:02.380Z,150.53
2023-02-11T03:34:53.487Z,154.07
2023-02-11T03:35:35.856Z,152.97
2023-02-11T03:36:15.896Z,153.63
2023-02-11T03:36:57.062Z,154.27
2023-02-11T03:37:40.217Z,152.73
2023-02-11T03:38:25.199Z,153.90
2023-02-11T03:39:01.769Z,154.97
2023-02-11T03:39:46.864Z,155.67
2023-02-11T03:40:23.731Z,155.53
2023-02-11T03:40:56.930Z,152.23
2023-02-11T03:41:33.829Z,151.67
2023-02-11T03:42:09.341Z,152.33
2023-02-11T03:42:50.985Z,151.50
2023-02-11T03:43:31.966Z,154.50
2023-02-11T03:44:06.149Z,153.50
2023-02-11T03:44:50.090Z,150.70
2023-02-11T03:45:25.200Z,153.87
2023-02-11T03:45:59.562Z,150.93
2023-02-11T03:46:37.506Z,153.33
2023-02-11T03:47:13.755Z,154.80
2023-02-11T03:47:52.088Z,156.00
2023-02-11T03:48:30.306Z,160.33
2023-02-11T03:49:09.731Z,158.20
2023-02-11T03:49:44.718Z,156.50
2023-02-11T03:50:20.330Z,157.23
2023-02-11T03:50:54.550Z,156.03
2023-02-11T03:51:30.267Z,160.37
2023-02-11T03:52:05.928Z,156.67
2023-02-11T03:52:39.202Z,161.17
2023-02-11T03:53:13.165Z,164.80
2023-02-11T03:53:46.897Z,163.37
2023-02-11T03:54:24.785Z,153.33
2023-02-11T03:55:01.944Z,147.07
2023-02-11T03:55:38.858Z,166.10
2023-02-11T03:56:17.577Z,198.50
2023-02-11T03:56:54.454Z,199.07
2023-02-11T03:57:26.761Z,161.77
2023-02-11T03:57:59.059Z,153.77
2023-02-11T03:58:31.427Z,149.83
2023-02-11T03:59:04.180Z,146.27
2023-02-11T03:59:54.732Z,144.90
2023-02-11T04:00:39.856Z,146.80
2023-02-11T04:01:12.744Z,145.27
2023-02-11T04:01:45.132Z,143.00
2023-02-11T04:02:17.952Z,141.67
2023-02-11T04:02:50.295Z,142.17
2023-02-11T04:03:22.668Z,144.07
2023-02-11T04:03:55.009Z,146.20
2023-02-11T04:04:27.454Z,144.27
2023-02-11T04:04:59.992Z,143.47
2023-02-11T04:05:32.717Z,142.33
2023-02-11T04:06:05.323Z,144.53
2023-02-11T04:06:37.923Z,145.40
2023-02-11T04:07:12.181Z,143.07
2023-02-11T04:07:44.532Z,142.10
2023-02-11T04:08:16.882Z,142.07
2023-02-11T04:08:49.208Z,142.23
2023-02-11T04:09:21.499Z,141.07
2023-02-11T04:09:54.069Z,142.47
2023-02-11T04:10:26.572Z,143.80
2023-02-11T04:10:59.318Z,143.73
2023-02-11T04:11:31.662Z,144.30
2023-02-11T04:12:04.277Z,143.30
2023-02-11T04:12:36.598Z,148.47
2023-02-11T04:13:08.912Z,152.83
2023-02-11T04:13:41.244Z,146.37
2023-02-11T04:14:13.567Z,137.30
2023-02-11T04:14:46.207Z,136.97
2023-02-11T04:15:19.332Z,133.83
2023-02-11T04:15:51.896Z,133.03
2023-02-11T04:16:24.402Z,136.30
2023-02-11T04:16:56.751Z,136.93
2023-02-11T04:17:29.070Z,137.53
2023-02-11T04:18:02.080Z,138.53
2023-02-11T04:18:34.432Z,141.00
2023-02-11T04:19:06.842Z,138.43
2023-02-11T04:19:39.246Z,138.03
2023-02-11T04:20:12.357Z,135.80
2023-02-11T04:20:44.654Z,135.40
2023-02-11T04:21:17.082Z,134.77
2023-02-11T04:21:49.423Z,138.20
2023-02-11T04:22:21.782Z,139.40
2023-02-11T04:22:54.131Z,138.90
2023-02-11T04:23:26.540Z,135.77
2023-02-11T04:23:58.870Z,136.07
2023-02-11T04:24:31.654Z,134.17
2023-02-11T04:25:05.796Z,134.00
2023-02-11T04:25:38.103Z,134.13
2023-02-11T04:26:10.453Z,134.27
2023-02-11T04:26:42.798Z,134.37
2023-02-11T04:27:15.136Z,131.80
2023-02-11T04:27:47.540Z,129.67
2023-02-11T04:28:19.989Z,129.97
2023-02-11T04:28:52.404Z,130.33
2023-02-11T04:29:24.869Z,132.47
2023-02-11T04:29:57.178Z,131.93
2023-02-11T04:30:29.557Z,132.13
2023-02-11T04:31:02.060Z,143.27
2023-02-11T04:31:34.442Z,158.10
2023-02-11T04:32:06.845Z,148.73
2023-02-11T04:32:39.368Z,145.07
2023-02-11T04:33:11.708Z,146.53
2023-02-11T04:33:44.000Z,142.53
2023-02-11T04:34:16.814Z,135.10
2023-02-11T04:34:49.261Z,136.37
2023-02-11T04:35:21.978Z,137.87
2023-02-11T04:35:54.308Z,138.27
2023-02-11T04:36:26.640Z,136.87
2023-02-11T04:36:58.972Z,134.07
2023-02-11T04:37:31.272Z,134.77
2023-02-11T04:38:03.573Z,132.60
2023-02-11T04:38:36.132Z,131.57
2023-02-11T04:39:08.449Z,135.40
2023-02-11T04:39:40.805Z,137.37
2023-02-11T04:40:13.125Z,135.03
2023-02-11T04:40:45.457Z,133.53
2023-02-11T04:41:17.774Z,129.53
2023-02-11T04:41:50.098Z,132.57
2023-02-11T04:42:22.495Z,134.37
2023-02-11T04:42:54.840Z,132.53
2023-02-11T04:43:27.213Z,133.20
2023-02-11T04:43:59.627Z,131.67
2023-02-11T04:44:32.090Z,129.80
2023-02-11T04:45:05.097Z,129.77
2023-02-11T04:45:37.386Z,131.70
2023-02-11T04:46:09.773Z,135.93
2023-02-11T04:46:42.255Z,141.13
2023-02-11T04:47:15.482Z,144.93
2023-02-11T04:47:47.846Z,141.07
2023-02-11T04:48:20.145Z,134.47
2023-02-11T04:48:52.552Z,130.93
2023-02-11T04:49:25.296Z,127.13
2023-02-11T04:49:57.619Z,127.53
2023-02-11T04:50:30.427Z,131.03
2023-02-11T04:51:03.120Z,131.87
2023-02-11T04:51:35.484Z,131.77
2023-02-11T04:52:08.247Z,131.47
2023-02-11T04:52:40.593Z,129.90
2023-02-11T04:53:12.914Z,129.07
2023-02-11T04:53:45.555Z,134.23
2023-02-11T04:54:18.052Z,132.30
2023-02-11T04:54:50.496Z,132.23
2023-02-11T04:55:22.823Z,134.97
2023-02-11T04:55:55.192Z,137.20
2023-02-11T04:56:27.509Z,138.10
2023-02-11T04:56:59.791Z,138.07
2023-02-11T04:57:33.548Z,139.80
2023-02-11T04:58:05.827Z,138.77
2023-02-11T04:58:38.145Z,139.30
2023-02-11T04:59:11.598Z,136.90
2023-02-11T04:59:44.011Z,135.93
2023-02-11T05:00:16.995Z,136.83
2023-02-11T05:00:49.330Z,133.73
2023-02-11T05:01:22.032Z,133.57
2023-02-11T05:01:54.464Z,134.47
2023-02-11T05:02:26.835Z,131.57
2023-02-11T05:02:59.168Z,128.90
2023-02-11T05:03:31.490Z,122.30
2023-02-11T05:04:03.937Z,121.33
2023-02-11T05:04:36.297Z,120.23
2023-02-11T05:05:08.623Z,119.20
2023-02-11T05:05:42.727Z,121.70
2023-02-11T05:06:15.061Z,120.30
2023-02-11T05:06:47.421Z,117.50
2023-02-11T05:07:19.770Z,119.40
2023-02-11T05:07:52.175Z,119.57
2023-02-11T05:08:24.538Z,119.90
2023-02-11T05:08:57.091Z,120.90
2023-02-11T05:09:29.409Z,120.40
2023-02-11T05:10:01.846Z,119.37
2023-02-11T05:10:34.463Z,119.27
2023-02-11T05:11:08.019Z,121.33
2023-02-11T05:11:40.892Z,119.90
2023-02-11T05:12:13.292Z,118.60
2023-02-11T05:12:48.361Z,118.17
2023-02-11T05:13:20.759Z,119.53
2023-02-11T05:13:53.614Z,120.03
2023-02-11T05:14:25.909Z,115.47
2023-02-11T05:14:58.199Z,116.53
2023-02-11T05:15:31.436Z,115.10
2023-02-11T05:16:03.960Z,118.43
2023-02-11T05:16:36.328Z,122.47
2023-02-11T05:17:55.270Z,122.27
2023-02-11T05:18:27.690Z,120.13
2023-02-11T05:19:00.030Z,118.83
2023-02-11T05:19:32.507Z,118.43
2023-02-11T05:20:05.236Z,119.70
2023-02-11T05:20:41.623Z,119.83
2023-02-11T05:21:17.726Z,121.13
2023-02-11T05:22:01.747Z,120.53
2023-02-11T05:22:34.764Z,119.30
2023-02-11T05:23:07.167Z,119.93
2023-02-11T05:23:40.661Z,118.13
2023-02-11T05:24:13.045Z,118.93
2023-02-11T05:24:45.383Z,120.07
2023-02-11T05:25:17.846Z,119.30
2023-02-11T05:25:50.442Z,117.70
2023-02-11T05:26:22.939Z,119.37
2023-02-11T05:26:55.239Z,116.97
2023-02-11T05:27:27.557Z,118.30
2023-02-11T05:27:59.945Z,118.77
2023-02-11T05:28:33.243Z,118.73
2023-02-11T05:29:05.623Z,120.07
2023-02-11T05:29:38.051Z,119.60
2023-02-11T05:30:11.261Z,117.93
2023-02-11T05:30:43.668Z,117.60
2023-02-11T05:31:16.922Z,119.17
2023-02-11T05:31:49.291Z,118.93
2023-02-11T05:32:21.645Z,117.27
2023-02-11T05:32:54.261Z,117.83
2023-02-11T05:33:26.629Z,118.03
2023-02-11T05:33:59.072Z,117.63
2023-02-11T05:34:31.432Z,114.60
2023-02-11T05:35:03.820Z,115.70
2023-02-11T05:35:36.132Z,114.60
2023-02-11T05:36:10.847Z,115.03
2023-02-11T05:36:43.239Z,113.87
2023-02-11T05:37:16.304Z,115.47
2023-02-11T05:37:48.649Z,117.77
2023-02-11T05:38:20.948Z,117.03
2023-02-11T05:38:53.276Z,117.77
2023-02-11T05:39:25.623Z,116.63
2023-02-11T05:39:57.947Z,114.93
2023-02-11T05:40:30.242Z,114.77
2023-02-11T05:41:03.819Z,115.30
2023-02-11T05:41:36.165Z,115.00
2023-02-11T05:42:08.603Z,116.77
2023-02-11T05:42:40.947Z,116.70
2023-02-11T05:43:13.244Z,114.97
2023-02-11T05:43:48.540Z,114.30
2023-02-11T05:44:20.898Z,114.00
2023-02-11T05:44:53.193Z,114.40
2023-02-11T05:45:25.482Z,113.73
2023-02-11T05:45:58.015Z,115.50
2023-02-11T05:46:30.396Z,116.50
2023-02-11T05:47:02.833Z,116.43
2023-02-11T05:47:35.232Z,115.03
2023-02-11T05:48:07.528Z,115.20
2023-02-11T05:48:39.841Z,120.13
2023-02-11T05:49:12.249Z,122.23
2023-02-11T05:49:44.567Z,123.03
2023-02-11T05:50:17.098Z,121.43
2023-02-11T05:50:49.560Z,122.97
2023-02-11T05:51:21.882Z,123.90
2023-02-11T05:51:54.200Z,124.00
2023-02-11T05:52:26.700Z,124.23
2023-02-11T05:52:59.023Z,125.20
2023-02-11T05:53:31.864Z,122.00
2023-02-11T05:54:04.341Z,121.27
2023-02-11T05:54:36.690Z,122.87
2023-02-11T05:55:09.023Z,124.13
2023-02-11T05:55:41.417Z,126.57
2023-02-11T05:56:14.625Z,124.87
2023-02-11T05:56:46.995Z,125.47
2023-02-11T05:57:19.563Z,127.23
2023-02-11T05:57:51.871Z,128.87
2023-02-11T05:58:24.181Z,132.73
2023-02-11T05:58:58.965Z,129.37
2023-02-11T05:59:31.262Z,128.57
2023-02-11T06:00:04.985Z,128.47
2023-02-11T06:00:37.759Z,127.63
2023-02-11T06:01:10.093Z,126.97
2023-02-11T06:01:42.828Z,127.83
2023-02-11T06:02:15.298Z,126.33
2023-02-11T06:02:47.665Z,124.80
2023-02-11T06:03:20.400Z,124.40
2023-02-11T06:03:52.808Z,124.73
2023-02-11T06:04:25.184Z,123.00
2023-02-11T06:04:57.561Z,122.50
2023-02-11T06:05:30.304Z,123.93
2023-02-11T06:06:02.602Z,125.10
2023-02-11T06:06:34.984Z,122.10
2023-02-11T06:07:07.457Z,120.50
2023-02-11T06:07:39.785Z,117.33
2023-02-11T06:08:12.690Z,114.40
2023-02-11T06:08:44.970Z,113.30
2023-02-11T06:09:17.306Z,116.40
2023-02-11T06:09:49.629Z,116.10
2023-02-11T06:10:22.342Z,116.57
2023-02-11T06:10:54.655Z,117.93
2023-02-11T06:11:27.063Z,115.43
2023-02-11T06:11:59.382Z,116.03
2023-02-11T06:12:31.695Z,117.10
2023-02-11T06:13:04.340Z,121.47
2023-02-11T06:13:36.670Z,120.27
2023-02-11T06:14:09.948Z,116.50
2023-02-11T06:14:42.297Z,115.97
2023-02-11T06:15:14.683Z,115.03
2023-02-11T06:15:59.371Z,112.30
2023-02-11T06:16:31.808Z,111.23
2023-02-11T06:17:04.593Z,109.97
2023-02-11T06:17:37.463Z,106.67
2023-02-11T06:18:10.533Z,105.07
2023-02-11T06:18:43.040Z,104.40
2023-02-11T06:19:15.485Z,104.50
2023-02-11T06:19:47.832Z,101.77
2023-02-11T06:20:20.250Z,102.10
2023-02-11T06:20:52.902Z,103.60
2023-02-11T06:21:30.703Z,101.80
2023-02-11T06:22:08.941Z,102.77
2023-02-11T06:22:41.415Z,105.10
2023-02-11T06:23:13.733Z,103.37
2023-02-11T06:23:46.058Z,102.63
2023-02-11T06:24:38.407Z,100.97
2023-02-11T06:25:11.260Z,104.93
2023-02-11T06:25:43.579Z,104.90
2023-02-11T06:26:20.049Z,104.27
2023-02-11T06:26:52.454Z,103.33
2023-02-11T06:27:25.239Z,104.07
2023-02-11T06:27:57.679Z,103.63
2023-02-11T06:28:31.484Z,104.23
2023-02-11T06:29:03.867Z,103.47
2023-02-11T06:29:36.393Z,103.83
2023-02-11T06:30:09.898Z,106.17
2023-02-11T06:30:42.287Z,104.97
2023-02-11T06:31:15.991Z,105.30
2023-02-11T06:31:48.486Z,105.23
2023-02-11T06:32:42.311Z,105.23
2023-02-11T06:33:13.206Z,104.50
2023-02-11T06:33:45.578Z,105.63
2023-02-11T06:34:17.905Z,106.97
2023-02-11T06:34:50.237Z,105.63
2023-02-11T06:35:22.555Z,109.23
2023-02-11T06:35:54.919Z,116.23
2023-02-11T06:36:27.224Z,114.10
2023-02-11T06:36:59.528Z,117.07
2023-02-11T06:37:31.821Z,119.30
2023-02-11T06:38:04.139Z,124.03
2023-02-11T06:38:36.474Z,122.73
2023-02-11T06:39:08.875Z,122.07
2023-02-11T06:39:41.225Z,124.40
2023-02-11T06:40:13.649Z,124.70
2023-02-11T06:40:49.667Z,121.80
2023-02-11T06:41:22.319Z,127.60
2023-02-11T06:41:55.119Z,131.83
2023-02-11T06:42:27.568Z,133.27
2023-02-11T06:42:59.944Z,132.43
2023-02-11T06:43:32.272Z,130.07
2023-02-11T06:44:04.703Z,130.80
2023-02-11T06:44:37.107Z,125.27
2023-02-11T06:45:11.136Z,123.07
2023-02-11T06:45:43.811Z,122.97
2023-02-11T06:46:16.282Z,124.63
2023-02-11T06:46:48.668Z,125.63
2023-02-11T06:47:20.969Z,115.63
2023-02-11T06:47:53.448Z,110.57
2023-02-11T06:48:25.784Z,112.27
2023-02-11T06:48:58.311Z,112.30
2023-02-11T06:49:30.707Z,107.80
2023-02-11T06:50:04.362Z,108.77
2023-02-11T06:50:36.719Z,110.10
2023-02-11T06:51:11.581Z,112.33
2023-02-11T06:51:43.960Z,111.10
2023-02-11T06:52:16.313Z,110.87
2023-02-11T06:52:48.697Z,108.37
2023-02-11T06:53:21.040Z,107.33
2023-02-11T06:53:53.372Z,103.10
2023-02-11T06:54:25.740Z,103.93
2023-02-11T06:54:58.090Z,107.00
2023-02-11T06:55:30.499Z,106.37
2023-02-11T06:56:08.639Z,104.23
2023-02-11T06:56:41.936Z,103.53
2023-02-11T06:57:14.240Z,105.77
2023-02-11T06:57:46.603Z,108.63
2023-02-11T06:58:18.906Z,108.67
2023-02-11T06:58:55.571Z,107.10
2023-02-11T06:59:27.996Z,106.17
2023-02-11T07:00:00.339Z,103.07
2023-02-11T07:00:32.671Z,100.70
2023-02-11T07:01:10.243Z,101.17
2023-02-11T07:01:43.091Z,100.37
2023-02-11T07:02:15.510Z,104.23
2023-02-11T07:02:47.894Z,103.67
2023-02-11T07:03:20.315Z,105.63
2023-02-11T07:03:52.826Z,105.47
2023-02-11T07:04:25.166Z,103.07
2023-02-11T07:04:57.461Z,103.90
2023-02-11T07:05:29.935Z,100.70
2023-02-11T07:06:06.981Z,101.83
2023-02-11T07:06:39.282Z,101.73
2023-02-11T07:07:11.583Z,102.90
2023-02-11T07:07:43.904Z,103.00
2023-02-11T07:08:16.455Z,98.53
2023-02-11T07:08:49.297Z,101.10
2023-02-11T07:09:21.630Z,101.40
2023-02-11T07:09:54.020Z,101.53
2023-02-11T07:10:26.328Z,103.17
2023-02-11T07:10:58.699Z,101.87
2023-02-11T07:11:31.591Z,102.53
2023-02-11T07:12:04.088Z,98.23
2023-02-11T07:12:36.449Z,97.03
2023-02-11T07:13:08.834Z,100.90
2023-02-11T07:13:41.270Z,95.67
2023-02-11T07:14:13.805Z,92.43
2023-02-11T07:14:46.084Z,96.23
2023-02-11T07:15:18.413Z,95.73
2023-02-11T07:15:51.261Z,96.00
2023-02-11T07:16:23.973Z,87.83
2023-02-11T07:16:56.291Z,86.53
2023-02-11T07:17:28.607Z,86.17
2023-02-11T07:18:00.910Z,86.57
2023-02-11T07:18:33.317Z,86.77
2023-02-11T07:19:05.636Z,85.40
2023-02-11T07:19:37.966Z,84.73
2023-02-11T07:20:12.503Z,90.00
2023-02-11T07:20:45.161Z,91.07
2023-02-11T07:21:20.863Z,84.87
2023-02-11T07:21:53.535Z,81.07
2023-02-11T07:22:25.875Z,81.77
2023-02-11T07:23:00.096Z,78.23